Time;durP1;ratioP1;P1;durP2;ratioP2;P2;SDS_P1;SDS_P2;PMS_P1;PMS_P2;Temp;Humidity;BMP_temperature;BMP_pressure;BME280_temperature;BME280_humidity;BME280_pressure;Samples;Min_cycle;Max_cycle;Signal;HPM_P1;HPM_P2
2022/03/21 00:00:46;;;;;;;74.47;47.67;;;0.60;99.90;-0.50;102930;;;;585360;241;24062;-77
2022/03/21 00:03:14;;;;;;;65.33;43.57;;;0.60;99.90;-0.50;102931;;;;585244;241;24092;-76
2022/03/21 00:05:42;;;;;;;65.50;41.27;;;0.60;99.90;-0.40;102933;;;;585514;241;24050;-77
2022/03/21 00:08:11;;;;;;;66.40;43.63;;;0.70;99.90;-0.40;102937;;;;585291;241;24074;-78
2022/03/21 00:10:38;;;;;;;78.97;49.60;;;0.80;99.90;-0.40;102933;;;;585058;241;24061;-78
2022/03/21 00:13:05;;;;;;;74.97;47.07;;;0.80;99.90;-0.40;102928;;;;578354;245;24109;-78
2022/03/21 00:15:35;;;;;;;81.87;48.83;;;0.80;99.90;-0.40;102924;;;;584522;241;24134;-78
2022/03/21 00:18:05;;;;;;;75.93;48.20;;;0.80;99.90;-0.40;102925;;;;575819;245;24175;-77
2022/03/21 00:20:36;;;;;;;73.17;43.77;;;0.80;99.90;-0.40;102930;;;;575495;245;24071;-77
2022/03/21 00:23:04;;;;;;;70.20;44.67;;;0.80;99.90;-0.40;102922;;;;576542;245;24121;-76
2022/03/21 00:25:31;;;;;;;71.10;43.30;;;0.80;99.90;-0.40;102930;;;;576456;245;24123;-78
2022/03/21 00:27:59;;;;;;;56.80;38.10;;;0.80;99.90;-0.40;102929;;;;576509;245;24200;-79
2022/03/21 00:30:31;;;;;;;58.27;38.57;;;0.80;99.90;-0.40;102922;;;;576367;245;24139;-79
2022/03/21 00:32:57;;;;;;;49.63;34.73;;;0.80;99.90;-0.30;102921;;;;575881;245;24092;-77
2022/03/21 00:35:25;;;;;;;55.47;35.73;;;0.80;99.90;-0.30;102922;;;;585317;245;24100;-79
2022/03/21 00:37:53;;;;;;;50.67;34.50;;;0.80;99.90;-0.30;102923;;;;576297;245;24168;-80
2022/03/21 00:40:21;;;;;;;52.90;33.07;;;0.90;99.90;-0.30;102918;;;;576756;245;24102;-77
2022/03/21 00:42:50;;;;;;;53.23;34.60;;;0.90;99.90;-0.30;102924;;;;577184;245;24125;-78
2022/03/21 00:45:18;;;;;;;44.90;31.37;;;0.90;99.90;-0.30;102926;;;;576945;245;24083;-79
2022/03/21 00:47:49;;;;;;;45.80;30.50;;;0.90;99.90;-0.20;102916;;;;585414;241;24097;-80
2022/03/21 00:50:17;;;;;;;45.87;31.37;;;0.90;99.90;-0.30;102911;;;;576211;245;24084;-78
2022/03/21 00:52:45;;;;;;;45.13;33.10;;;0.90;99.90;-0.30;102922;;;;575941;245;24116;-78
2022/03/21 00:55:13;;;;;;;64.50;37.80;;;0.90;99.90;-0.40;102914;;;;575371;245;24089;-78
2022/03/21 00:57:44;;;;;;;66.27;42.40;;;0.80;99.90;-0.40;102922;;;;575414;245;24086;-78
2022/03/21 01:00:08;;;;;;;61.40;38.13;;;0.80;99.90;-0.50;102912;;;;583815;245;24090;-78
2022/03/21 01:02:36;;;;;;;57.43;40.23;;;0.70;99.90;-0.50;102915;;;;583617;241;24148;-77
2022/03/21 01:05:05;;;;;;;72.67;46.47;;;0.60;99.90;-0.60;102917;;;;575045;245;24117;-78
2022/03/21 01:07:36;;;;;;;76.80;47.07;;;0.50;99.90;-0.70;102910;;;;575172;245;24123;-77
2022/03/21 01:10:01;;;;;;;79.80;51.20;;;0.50;99.90;-0.80;102908;;;;575299;245;24114;-77
2022/03/21 01:12:29;;;;;;;80.00;52.53;;;0.40;99.90;-0.90;102908;;;;575801;245;24081;-78
2022/03/21 01:14:57;;;;;;;82.23;51.00;;;0.30;99.90;-1.00;102915;;;;575796;245;24092;-77
2022/03/21 01:17:28;;;;;;;78.83;48.37;;;0.20;99.90;-1.00;102913;;;;575754;245;24081;-77
2022/03/21 01:19:53;;;;;;;80.47;52.03;;;0.10;99.90;-1.00;102915;;;;583911;245;24102;-78
2022/03/21 01:22:21;;;;;;;82.87;51.37;;;0.10;99.90;-1.00;102906;;;;583926;245;24121;-77
2022/03/21 01:24:50;;;;;;;76.50;47.90;;;0.10;99.90;-1.00;102912;;;;575367;245;24105;-78
2022/03/21 01:27:22;;;;;;;78.17;48.60;;;0.10;99.90;-1.00;102913;;;;575655;245;24078;-77
2022/03/21 01:29:51;;;;;;;78.97;50.47;;;0.10;99.90;-1.10;102918;;;;583285;245;24205;-79
2022/03/21 01:32:20;;;;;;;78.20;46.25;;;0.10;99.90;-1.10;102915;;;;579233;242;35245;-81
2022/03/21 01:34:45;;;;;;;59.30;31.10;;;0.10;99.90;-1.10;102912;;;;576491;245;24142;-82
2022/03/21 01:37:14;;;;;;;66.20;32.03;;;0.00;99.90;-1.10;102910;;;;577102;245;24091;-82
2022/03/21 01:39:41;;;;;;;75.83;45.07;;;0.00;99.90;-1.20;102899;;;;576459;245;24092;-83
2022/03/21 01:42:10;;;;;;;70.17;46.57;;;0.00;99.90;-1.20;102905;;;;585318;240;24106;-82
2022/03/21 01:44:38;;;;;;;72.87;46.50;;;0.00;99.90;-1.20;102902;;;;576261;245;24131;-82
2022/03/21 01:47:06;;;;;;;76.37;45.80;;;0.00;99.90;-1.20;102898;;;;576132;245;24077;-79
2022/03/21 01:49:34;;;;;;;77.63;49.50;;;0.00;99.90;-1.20;102897;;;;585202;245;24161;-79
2022/03/21 01:52:02;;;;;;;69.17;44.17;;;0.00;99.90;-1.20;102898;;;;576081;245;24128;-79
2022/03/21 01:57:19;;;;;;;65.53;41.10;;;0.00;99.90;-1.10;102903;;;;584866;242;24147;-80
2022/03/21 01:59:46;;;;;;;56.40;35.03;;;0.00;99.90;-1.10;102903;;;;576068;245;24127;-78
2022/03/21 02:02:12;;;;;;;61.27;38.23;;;0.00;99.90;-1.10;102884;;;;576230;245;24129;-85
2022/03/21 02:04:40;;;;;;;59.23;39.90;;;0.10;99.90;-1.10;102897;;;;576094;245;24140;-84
2022/03/21 02:07:12;;;;;;;62.60;41.37;;;0.10;99.90;-1.10;102900;;;;576071;245;24081;-82
2022/03/21 02:09:37;;;;;;;77.40;43.20;;;0.10;99.90;-1.10;102895;;;;575824;245;24222;-77
2022/03/21 02:12:05;;;;;;;83.50;47.20;;;0.00;99.90;-1.10;102899;;;;576005;245;24136;-78
2022/03/21 02:14:39;;;;;;;93.77;49.17;;;0.10;99.90;-1.10;102890;;;;576146;245;24062;-81
2022/03/21 02:17:01;;;;;;;90.20;49.53;;;0.00;99.90;-1.10;102883;;;;575402;245;24082;-80
2022/03/21 02:19:29;;;;;;;83.93;45.40;;;0.00;99.90;-1.10;102899;;;;585110;241;24085;-80
2022/03/21 02:22:15;;;;;;;61.70;37.10;;;0.00;99.90;-1.10;102903;;;;575292;245;24086;-79
2022/03/21 02:25:04;;;;;;;53.47;35.70;;;0.10;99.90;-0.90;102898;;;;575553;241;24138;-84
2022/03/21 02:27:32;;;;;;;51.57;37.50;;;0.20;99.90;-0.80;102891;;;;571829;241;24175;-84
2022/03/21 02:30:03;;;;;;;55.43;40.00;;;0.30;99.90;-0.60;102905;;;;586103;241;24062;-86
2022/03/21 02:32:31;;;;;;;63.67;42.40;;;0.50;99.90;-0.60;102904;;;;586006;241;24092;-82
2022/03/21 02:34:56;;;;;;;86.93;48.07;;;0.60;99.90;-0.70;102902;;;;585286;241;24101;-79
2022/03/21 02:37:24;;;;;;;93.10;50.27;;;0.50;99.90;-0.70;102899;;;;594478;241;24123;-80
2022/03/21 02:39:51;;;;;;;95.13;53.27;;;0.50;99.90;-0.90;102899;;;;585450;241;24113;-79
2022/03/21 02:42:19;;;;;;;76.33;46.67;;;0.30;99.90;-1.00;102896;;;;585480;241;24058;-80
2022/03/21 02:44:47;;;;;;;68.60;42.23;;;0.20;99.90;-1.10;102891;;;;585667;239;24057;-78
2022/03/21 02:47:15;;;;;;;71.80;45.00;;;0.10;99.90;-1.10;102887;;;;586944;240;24068;-79
2022/03/21 02:49:43;;;;;;;78.17;45.33;;;0.10;99.90;-1.20;102890;;;;586573;241;24061;-78
2022/03/21 02:52:11;;;;;;;92.53;51.93;;;0.00;99.90;-1.20;102887;;;;586270;241;24114;-77
2022/03/21 02:54:39;;;;;;;85.73;49.07;;;0.00;99.90;-1.30;102890;;;;586163;241;24068;-77
2022/03/21 02:57:07;;;;;;;77.70;46.80;;;-0.10;99.90;-1.30;102882;;;;586199;241;24071;-77
2022/03/21 02:59:35;;;;;;;74.07;45.03;;;-0.10;99.90;-1.30;102887;;;;586149;241;24071;-80
2022/03/21 03:02:02;;;;;;;70.13;46.20;;;-0.10;99.90;-1.40;102885;;;;595464;238;24095;-77
2022/03/21 03:04:30;;;;;;;77.70;45.67;;;-0.20;99.90;-1.40;102882;;;;594988;241;24060;-78
2022/03/21 03:06:58;;;;;;;72.80;45.70;;;-0.20;99.90;-1.40;102883;;;;586162;241;24150;-76
2022/03/21 03:09:26;;;;;;;70.73;45.80;;;-0.20;99.90;-1.40;102886;;;;586155;241;24107;-79
2022/03/21 03:11:54;;;;;;;88.30;49.53;;;-0.30;99.90;-1.50;102889;;;;586071;241;25104;-78
2022/03/21 03:14:23;;;;;;;81.93;46.53;;;-0.30;99.90;-1.60;102883;;;;585813;241;24054;-77
2022/03/21 03:16:51;;;;;;;78.17;46.70;;;-0.30;99.90;-1.60;102889;;;;585698;241;24049;-78
2022/03/21 03:19:20;;;;;;;69.10;44.63;;;-0.40;99.90;-1.70;102887;;;;585867;241;24058;-77
2022/03/21 03:21:48;;;;;;;71.77;46.73;;;-0.50;99.90;-1.70;102883;;;;585596;241;24104;-77
2022/03/21 03:24:16;;;;;;;73.30;46.47;;;-0.50;99.90;-1.80;102887;;;;585784;241;24097;-78
2022/03/21 03:26:48;;;;;;;77.43;48.10;;;-0.60;99.90;-1.80;102887;;;;585754;241;24076;-79
2022/03/21 03:29:14;;;;;;;74.20;48.53;;;-0.70;99.90;-1.90;102883;;;;585938;241;24121;-82
2022/03/21 03:31:45;;;;;;;70.30;46.07;;;-0.70;99.90;-1.90;102880;;;;586301;241;24070;-76
2022/03/21 03:34:14;;;;;;;78.53;46.60;;;-0.80;99.90;-2.00;102891;;;;585712;241;24208;-79
2022/03/21 03:36:39;;;;;;;74.57;47.50;;;-0.80;99.90;-2.00;102886;;;;593456;241;24057;-79
2022/03/21 03:39:07;;;;;;;70.93;45.47;;;-0.80;99.90;-2.10;102888;;;;595103;241;24065;-79
2022/03/21 03:41:35;;;;;;;78.03;48.67;;;-0.90;99.90;-2.10;102895;;;;581014;241;35260;-78
2022/03/21 03:44:03;;;;;;;63.50;31.20;;;-0.90;99.90;-2.10;102879;;;;585858;241;24281;-77
2022/03/21 03:46:31;;;;;;;70.00;45.23;;;-0.90;99.90;-2.10;102880;;;;585904;241;24048;-78
2022/03/21 03:49:02;;;;;;;67.73;44.27;;;-1.00;99.90;-2.10;102884;;;;585777;241;24069;-79
2022/03/21 03:51:27;;;;;;;69.17;44.23;;;-0.90;99.90;-2.10;102881;;;;594336;241;24196;-79
2022/03/21 03:53:56;;;;;;;74.33;46.53;;;-0.90;99.90;-2.10;102883;;;;594504;241;24540;-79
2022/03/21 03:56:24;;;;;;;66.33;45.10;;;-0.90;99.90;-2.00;102888;;;;585618;239;24130;-78
2022/03/21 03:58:54;;;;;;;64.47;44.53;;;-0.90;99.90;-2.00;102884;;;;586811;240;24057;-78
2022/03/21 04:01:23;;;;;;;65.50;44.33;;;-0.80;99.90;-2.00;102895;;;;586283;241;24119;-79
2022/03/21 04:03:47;;;;;;;71.73;45.00;;;-0.80;99.90;-2.00;102897;;;;585879;241;24111;-78
2022/03/21 04:06:21;;;;;;;66.93;45.87;;;-0.80;99.90;-2.00;102882;;;;586409;241;24047;-79
2022/03/21 04:08:50;;;;;;;73.30;46.10;;;-0.80;99.90;-2.00;102890;;;;585581;241;24100;-79
2022/03/21 04:11:14;;;;;;;69.40;43.20;;;-0.80;99.90;-2.00;102887;;;;585739;241;24071;-77
2022/03/21 04:13:42;;;;;;;73.27;45.97;;;-0.80;99.90;-2.00;102889;;;;586030;241;24082;-77
2022/03/21 04:16:14;;;;;;;71.70;44.33;;;-0.80;99.90;-2.10;102876;;;;575688;245;24112;-77
2022/03/21 04:18:38;;;;;;;66.07;40.83;;;-0.90;99.90;-2.10;102886;;;;575263;245;24188;-79
2022/03/21 04:21:06;;;;;;;66.67;45.13;;;-1.00;99.90;-2.20;102889;;;;586197;241;24123;-78
2022/03/21 04:23:34;;;;;;;69.47;47.00;;;-0.90;99.90;-2.20;102885;;;;586185;241;24100;-78
2022/03/21 04:26:02;;;;;;;72.53;46.13;;;-1.00;99.90;-2.20;102885;;;;585877;241;24055;-79
2022/03/21 04:28:30;;;;;;;74.13;44.63;;;-1.00;99.90;-2.30;102878;;;;585754;241;24117;-80
2022/03/21 04:30:58;;;;;;;69.03;43.43;;;-1.10;99.90;-2.30;102878;;;;586230;241;24113;-84
2022/03/21 04:33:27;;;;;;;65.43;46.80;;;-1.10;99.90;-2.30;102876;;;;586025;241;24067;-83
2022/03/21 04:35:55;;;;;;;67.43;44.70;;;-1.10;99.90;-2.30;102883;;;;586172;241;24049;-83
2022/03/21 04:38:23;;;;;;;66.73;45.40;;;-1.10;99.90;-2.30;102885;;;;586079;241;24088;-81
2022/03/21 04:40:53;;;;;;;68.90;47.73;;;-1.10;99.90;-2.30;102877;;;;586359;241;24087;-84
2022/03/21 04:43:21;;;;;;;67.10;45.33;;;-1.20;99.90;-2.30;102883;;;;586643;241;24045;-85
2022/03/21 04:45:49;;;;;;;71.93;46.43;;;-1.10;99.90;-2.30;102885;;;;595484;241;24052;-81
2022/03/21 04:48:18;;;;;;;68.27;45.50;;;-1.10;99.90;-2.30;102888;;;;595712;241;24060;-84
2022/03/21 04:50:46;;;;;;;69.87;47.63;;;-1.10;99.90;-2.20;102885;;;;585930;241;24083;-79
2022/03/21 04:53:15;;;;;;;73.17;47.00;;;-1.00;99.90;-2.20;102882;;;;585659;241;24066;-80
2022/03/21 04:55:44;;;;;;;69.40;47.57;;;-1.00;99.90;-2.20;102882;;;;585529;241;24112;-78
2022/03/21 04:58:13;;;;;;;78.80;50.00;;;-1.10;99.90;-2.20;102881;;;;576999;245;24122;-78
2022/03/21 05:00:40;;;;;;;71.83;46.97;;;-1.00;99.90;-2.20;102883;;;;575531;245;24074;-79
2022/03/21 05:03:08;;;;;;;71.37;48.80;;;-1.00;99.90;-2.20;102885;;;;575708;245;24194;-79
2022/03/21 05:05:36;;;;;;;69.70;48.53;;;-1.00;99.90;-2.20;102882;;;;575949;245;24113;-81
2022/03/21 05:08:08;;;;;;;72.43;48.67;;;-1.00;99.90;-2.10;102885;;;;584676;243;24107;-81
2022/03/21 05:10:32;;;;;;;76.50;49.23;;;-0.90;99.90;-2.10;102885;;;;577598;245;24126;-83
2022/03/21 05:13:00;;;;;;;76.07;49.03;;;-0.90;99.90;-2.10;102882;;;;582168;243;24105;-85
2022/03/21 05:15:28;;;;;;;73.70;47.50;;;-0.90;99.90;-2.10;102888;;;;577129;245;24076;-83
2022/03/21 05:17:56;;;;;;;65.93;47.77;;;-0.90;99.90;-2.00;102891;;;;577004;245;25172;-82
2022/03/21 05:20:25;;;;;;;66.77;45.43;;;-0.90;99.90;-2.00;102888;;;;576245;245;24093;-80
2022/03/21 05:31:11;;;;;;;67.30;46.33;;;-0.60;99.90;-1.60;102891;;;;584908;245;24061;-79
2022/03/21 05:36:26;;;;;;;58.93;43.00;;;-0.40;99.90;-1.40;102898;;;;575164;245;24069;-79
2022/03/21 05:38:53;;;;;;;65.63;45.57;;;-0.30;99.90;-1.30;102906;;;;575539;245;24130;-78
2022/03/21 05:41:24;;;;;;;62.70;44.13;;;-0.20;99.90;-1.20;102906;;;;575797;245;24142;-79
2022/03/21 05:43:49;;;;;;;70.53;45.60;;;-0.10;99.90;-1.10;102905;;;;575562;245;24077;-80
2022/03/21 05:46:17;;;;;;;65.60;41.87;;;0.10;99.90;-0.90;102902;;;;582781;241;24057;-79
2022/03/21 05:48:51;;;;;;;59.50;39.83;;;0.20;99.90;-0.30;102902;;;;585825;241;24038;-79
2022/03/21 05:51:23;;;;;;;57.07;29.70;;;2.30;99.90;1.80;102910;;;;586194;241;24194;-81
2022/03/21 05:53:48;;;;;;;49.33;27.10;;;2.30;99.90;4.20;102933;;;;585844;241;24155;-80
2022/03/21 05:56:15;;;;;;;47.37;27.83;;;4.50;99.90;6.60;102933;;;;575031;246;24093;-82
2022/03/21 05:58:46;;;;;;;47.77;27.63;;;6.90;99.90;8.70;102942;;;;575415;246;24103;-78
2022/03/21 06:01:11;;;;;;;44.63;29.80;;;9.00;99.90;10.40;102943;;;;574817;246;24133;-81
2022/03/21 06:03:42;;;;;;;51.87;30.33;;;10.90;99.90;12.10;102947;;;;586039;241;24067;-82
2022/03/21 06:06:11;;;;;;;51.57;32.37;;;14.10;99.90;13.60;102946;;;;581636;246;24096;-79
2022/03/21 06:08:36;;;;;;;46.63;31.83;;;14.10;99.90;14.90;102958;;;;594652;238;25182;-80
2022/03/21 06:11:04;;;;;;;50.07;33.83;;;15.50;93.50;16.00;102956;;;;574732;246;24142;-82
2022/03/21 06:13:35;;;;;;;54.40;34.77;;;16.60;84.10;17.10;102957;;;;586621;241;24087;-79
2022/03/21 06:16:03;;;;;;;46.40;33.00;;;17.70;73.40;18.10;102960;;;;574762;246;24082;-79
2022/03/21 06:18:35;;;;;;;61.63;33.30;;;18.70;64.70;19.00;102970;;;;574351;246;24082;-79
2022/03/21 06:21:02;;;;;;;74.77;31.90;;;19.60;58.80;20.00;102966;;;;586896;240;24062;-78
2022/03/21 06:23:35;;;;;;;51.87;32.43;;;21.20;49.70;20.60;102971;;;;582751;246;24117;-80
2022/03/21 06:26:02;;;;;;;55.87;32.90;;;21.10;49.60;21.20;102975;;;;603289;237;24133;-78
2022/03/21 06:28:31;;;;;;;55.60;33.60;;;21.80;47.20;21.80;102979;;;;577327;245;24152;-78
2022/03/21 06:30:58;;;;;;;54.97;32.53;;;22.40;45.30;22.30;102980;;;;593611;241;24037;-79
2022/03/21 06:33:23;;;;;;;47.70;31.60;;;22.80;44.20;22.60;102980;;;;585975;241;24068;-79
2022/03/21 06:35:52;;;;;;;46.30;31.13;;;23.70;42.30;23.10;102985;;;;585947;241;24067;-78
2022/03/21 06:38:19;;;;;;;87.47;38.17;;;23.60;42.20;23.70;102994;;;;585730;241;24180;-77
2022/03/21 06:40:47;;;;;;;55.10;35.37;;;24.20;42.20;24.20;102997;;;;585687;241;24037;-78
2022/03/21 06:43:20;;;;;;;58.57;33.70;;;24.80;40.10;24.40;102998;;;;588088;241;24137;-79
2022/03/21 06:45:55;;;;;;;56.37;32.07;;;25.10;39.30;24.60;103002;;;;594731;241;23109;-79
2022/03/21 06:48:15;;;;;;;43.20;31.30;;;25.50;37.40;24.80;103006;;;;591476;241;24083;-81
2022/03/21 06:50:42;;;;;;;45.47;30.73;;;25.50;37.40;25.00;103006;;;;585658;241;23132;-87
2022/03/21 06:53:10;;;;;;;42.73;30.70;;;25.70;37.10;25.20;103018;;;;587882;241;23097;-79
2022/03/21 06:55:38;;;;;;;66.50;33.37;;;25.90;36.90;25.20;103017;;;;585220;241;23061;-78
2022/03/21 06:58:09;;;;;;;55.43;31.77;;;25.90;35.90;25.50;103018;;;;585488;241;23135;-79
2022/03/21 07:00:34;;;;;;;53.83;32.17;;;26.10;36.30;26.30;103021;;;;591660;241;23077;-83
2022/03/21 07:03:02;;;;;;;37.07;29.07;;;26.70;34.90;26.40;103033;;;;585218;241;24127;-80
2022/03/21 07:05:30;;;;;;;41.20;31.33;;;27.10;34.50;26.30;103028;;;;585072;241;24041;-79
2022/03/21 07:07:58;;;;;;;41.07;29.67;;;27.00;33.70;26.60;103024;;;;585302;241;24090;-81
2022/03/21 07:10:26;;;;;;;51.80;31.70;;;27.20;34.10;26.90;103027;;;;585398;241;23078;-80
2022/03/21 07:12:54;;;;;;;46.80;31.53;;;27.40;33.90;27.30;103035;;;;584979;241;23100;-81
2022/03/21 07:15:22;;;;;;;78.63;34.60;;;27.90;33.90;28.10;103036;;;;585136;241;23071;-82
2022/03/21 07:17:51;;;;;;;50.90;30.47;;;28.50;33.30;28.30;103042;;;;586294;241;23060;-84
2022/03/21 07:20:20;;;;;;;32.87;26.60;;;28.90;32.30;28.60;103037;;;;586056;241;23063;-83
2022/03/21 07:22:45;;;;;;;37.33;30.30;;;29.10;31.20;28.90;103043;;;;586150;241;23068;-85
2022/03/21 07:25:13;;;;;;;52.50;31.60;;;29.40;31.20;29.40;103044;;;;586258;241;23108;-84
2022/03/21 07:27:48;;;;;;;43.60;29.77;;;30.60;30.70;30.10;103045;;;;588650;241;23073;-82
2022/03/21 07:30:16;;;;;;;39.42;30.02;;;30.50;30.60;30.50;103048;;;;585845;241;23106;-85
2022/03/21 07:32:44;;;;;;;36.83;29.00;;;31.10;30.10;30.90;103047;;;;586845;241;23081;-84
2022/03/21 07:35:12;;;;;;;39.88;28.20;;;31.50;29.80;31.30;103047;;;;595993;241;23096;-80
2022/03/21 07:37:43;;;;;;;32.35;29.00;;;31.90;29.60;31.70;103049;;;;586806;241;24257;-82
2022/03/21 07:40:10;;;;;;;39.17;30.27;;;32.30;29.40;32.20;103054;;;;586354;241;23187;-80
2022/03/21 07:42:36;;;;;;;34.10;29.80;;;32.80;29.20;32.50;103059;;;;592774;237;23016;-85
2022/03/21 07:47:50;;;;;;;34.45;30.85;;;33.40;28.90;32.60;103063;;;;586327;241;23115;-85
2022/03/21 07:50:20;;;;;;;43.05;29.63;;;33.40;28.90;32.70;103061;;;;581486;245;23160;-87
2022/03/21 07:52:45;;;;;;;34.38;29.90;;;33.50;28.90;32.70;103070;;;;566502;250;23111;-82
2022/03/21 07:55:19;;;;;;;38.03;31.50;;;33.40;28.30;32.60;103068;;;;573976;246;23159;-84
2022/03/21 07:57:47;;;;;;;38.67;31.00;;;33.40;28.30;32.20;103068;;;;575245;246;26309;-78
2022/03/21 08:00:16;;;;;;;33.40;29.30;;;33.20;28.60;32.80;103071;;;;558057;250;23207;-80
2022/03/21 08:02:43;;;;;;;37.80;29.92;;;33.50;28.70;33.10;103080;;;;590068;242;23112;-80
2022/03/21 08:05:08;;;;;;;38.90;31.35;;;33.90;28.30;33.10;103069;;;;575772;246;24307;-83
2022/03/21 08:07:43;;;;;;;41.03;30.60;;;33.90;28.40;32.90;103077;;;;582240;242;23106;-79
2022/03/21 08:10:07;;;;;;;36.15;30.50;;;33.80;28.40;33.40;103081;;;;572975;247;23137;-86
2022/03/21 08:12:35;;;;;;;37.38;29.98;;;34.10;28.30;33.60;103078;;;;582191;246;23174;-80
2022/03/21 08:15:03;;;;;;;33.67;26.95;;;34.40;27.90;33.50;103084;;;;578208;247;24121;-84
2022/03/21 08:17:30;;;;;;;42.50;28.25;;;34.50;27.30;33.60;103086;;;;582235;242;24235;-85
2022/03/21 08:19:58;;;;;;;36.90;28.65;;;34.50;27.30;33.30;103081;;;;573416;247;23145;-82
2022/03/21 08:22:27;;;;;;;38.00;30.50;;;34.40;26.60;32.40;103088;;;;573261;247;23081;-77
2022/03/21 08:24:54;;;;;;;40.45;31.58;;;33.60;26.90;31.90;103087;;;;573048;247;23222;-83
2022/03/21 08:27:22;;;;;;;33.47;29.70;;;33.10;27.20;31.90;103076;;;;573123;242;23139;-83
2022/03/21 08:29:50;;;;;;;30.88;27.73;;;32.90;27.70;32.10;103088;;;;573626;250;23087;-82
2022/03/21 08:32:18;;;;;;;30.50;27.27;;;33.10;27.50;31.90;103083;;;;575578;246;24098;-82
2022/03/21 08:34:46;;;;;;;35.30;26.75;;;33.10;27.10;30.90;103086;;;;563101;251;23194;-85
2022/03/21 08:37:14;;;;;;;35.58;27.60;;;32.50;27.40;30.70;103077;;;;588569;242;23076;-83
2022/03/21 08:39:45;;;;;;;40.17;27.45;;;32.10;27.60;30.50;103079;;;;579382;246;23150;-85
2022/03/21 08:42:11;;;;;;;34.97;27.92;;;31.90;27.80;30.50;103078;;;;575181;246;23137;-80
2022/03/21 08:44:39;;;;;;;30.60;27.05;;;31.80;28.20;31.20;103070;;;;576773;240;24158;-82
2022/03/21 08:47:07;;;;;;;31.62;26.20;;;32.20;28.40;32.10;103070;;;;577331;245;23157;-82
2022/03/21 08:49:38;;;;;;;37.70;28.30;;;33.40;28.00;32.40;103077;;;;576582;245;24195;-83
2022/03/21 08:52:06;;;;;;;46.10;29.52;;;33.40;28.00;32.40;103079;;;;576753;245;23127;-79
2022/03/21 08:54:33;;;;;;;42.97;26.65;;;33.70;27.40;33.30;103074;;;;583792;242;23107;-78
2022/03/21 08:57:04;;;;;;;34.80;26.58;;;34.30;27.10;33.10;103070;;;;576021;243;24095;-79
2022/03/21 08:59:29;;;;;;;27.13;24.30;;;34.40;26.70;32.80;103068;;;;575789;245;24104;-79
2022/03/21 09:01:57;;;;;;;28.73;25.58;;;34.30;27.10;33.20;103065;;;;575767;245;24139;-78
2022/03/21 09:04:26;;;;;;;48.50;27.15;;;34.70;26.60;33.20;103065;;;;575726;245;24133;-77
2022/03/21 09:06:54;;;;;;;26.17;23.12;;;34.60;26.50;33.20;103062;;;;576213;245;23121;-80
2022/03/21 09:09:22;;;;;;;24.60;22.13;;;34.70;26.20;33.00;103063;;;;576292;245;23101;-82
2022/03/21 09:11:51;;;;;;;25.65;22.85;;;34.60;26.40;33.00;103063;;;;576397;245;23113;-78
2022/03/21 09:14:18;;;;;;;31.25;22.30;;;34.60;26.20;32.00;103061;;;;576238;245;23117;-80
2022/03/21 09:16:50;;;;;;;31.73;23.45;;;34.10;26.60;32.60;103061;;;;576607;245;23110;-76
2022/03/21 09:19:14;;;;;;;27.83;22.52;;;34.10;26.90;32.90;103058;;;;585354;240;23078;-80
2022/03/21 09:21:43;;;;;;;25.02;19.75;;;34.50;26.00;32.40;103062;;;;576844;245;23110;-77
2022/03/21 09:24:10;;;;;;;22.70;20.25;;;34.20;25.90;31.70;103047;;;;581818;238;24117;-85
2022/03/21 09:26:38;;;;;;;20.90;18.58;;;33.70;26.10;31.30;103051;;;;576259;245;23108;-78
2022/03/21 09:29:06;;;;;;;27.27;20.30;;;33.40;26.00;30.30;103047;;;;567782;250;23244;-78
2022/03/21 09:31:40;;;;;;;22.02;19.48;;;31.50;26.50;29.00;103050;;;;573092;247;23154;-82
2022/03/21 09:34:03;;;;;;;22.85;20.08;;;31.40;26.50;27.10;103035;;;;579060;241;23065;-78
2022/03/21 09:36:31;;;;;;;24.08;20.45;;;29.80;27.10;26.40;103034;;;;594266;241;23180;-77
2022/03/21 09:38:58;;;;;;;26.50;18.73;;;28.50;28.00;25.40;103033;;;;579718;245;23054;-76
2022/03/21 09:41:26;;;;;;;31.67;18.53;;;27.50;28.40;23.40;103021;;;;579888;241;24082;-81
2022/03/21 09:43:55;;;;;;;34.20;21.63;;;25.90;28.90;21.70;103021;;;;578271;242;24090;-81
2022/03/21 09:46:26;;;;;;;35.20;20.87;;;24.10;30.30;21.30;103018;;;;589636;241;23032;-78
2022/03/21 09:48:51;;;;;;;28.87;20.40;;;23.10;31.90;21.20;103006;;;;587995;243;24033;-80
2022/03/21 09:51:28;;;;;;;28.63;20.53;;;22.80;32.80;21.40;103008;;;;579887;246;23108;-83
2022/03/21 09:53:59;;;;;;;26.43;20.40;;;22.70;32.70;21.40;103002;;;;578092;245;24094;-83
2022/03/21 09:56:24;;;;;;;28.63;20.20;;;22.80;33.60;21.50;103004;;;;577099;244;24051;-79
2022/03/21 09:59:02;;;;;;;24.77;19.93;;;23.00;33.20;21.80;102996;;;;588657;242;24063;-84
2022/03/21 10:01:27;;;;;;;25.20;19.50;;;23.00;33.20;22.40;102981;;;;582249;244;24130;-85
2022/03/21 10:03:58;;;;;;;22.73;17.07;;;23.50;33.50;22.80;102990;;;;579381;244;24148;-79
2022/03/21 10:06:32;;;;;;;23.20;16.67;;;24.00;32.40;23.40;102986;;;;578784;244;24095;-81
2022/03/21 10:09:09;;;;;;;27.07;20.33;;;24.50;31.80;24.10;102994;;;;575535;244;23101;-78
2022/03/21 10:11:36;;;;;;;23.43;19.73;;;25.30;31.20;24.40;102996;;;;578779;244;24121;-80
2022/03/21 10:14:29;;;;;;;23.60;20.83;;;25.90;31.10;24.40;102992;;;;578633;244;24078;-83
2022/03/21 10:17:00;;;;;;;24.80;20.10;;;26.00;30.40;24.30;102992;;;;587519;239;23092;-80
2022/03/21 10:19:28;;;;;;;25.47;18.37;;;25.90;30.80;24.30;102980;;;;588788;237;23041;-82
2022/03/21 10:22:02;;;;;;;20.40;18.30;;;26.00;30.00;24.10;102980;;;;565677;246;23139;-83
2022/03/21 10:24:36;;;;;;;19.80;16.73;;;25.80;30.90;24.00;102981;;;;584848;241;24075;-77
2022/03/21 10:27:05;;;;;;;21.43;16.33;;;25.70;30.60;23.30;102982;;;;584318;241;24140;-78
2022/03/21 10:29:33;;;;;;;19.70;16.20;;;25.00;30.70;22.30;102974;;;;584696;241;23116;-77
2022/03/21 10:32:02;;;;;;;19.77;15.20;;;24.00;31.30;21.50;102973;;;;584653;241;23085;-77
2022/03/21 10:34:34;;;;;;;18.47;14.90;;;23.00;32.30;20.40;102973;;;;584722;241;24120;-77
2022/03/21 10:37:00;;;;;;;18.57;14.63;;;21.90;32.30;19.40;102965;;;;584349;241;24106;-78
2022/03/21 10:39:28;;;;;;;35.07;16.30;;;20.90;34.10;18.90;102971;;;;594184;237;24042;-79
2022/03/21 10:42:00;;;;;;;32.17;15.43;;;19.20;35.90;17.90;102959;;;;584423;241;24073;-78
2022/03/21 10:44:29;;;;;;;22.00;15.30;;;18.40;37.10;17.20;102960;;;;584616;241;25129;-78
2022/03/21 10:46:54;;;;;;;22.60;14.67;;;18.30;37.00;16.60;102955;;;;585015;241;24113;-83
2022/03/21 10:49:33;;;;;;;21.63;14.73;;;17.60;38.10;15.90;102939;;;;584902;241;24065;-79
2022/03/21 10:52:05;;;;;;;22.00;12.83;;;16.90;39.30;15.40;102948;;;;594048;241;24054;-76
2022/03/21 10:54:39;;;;;;;28.43;14.70;;;16.30;40.60;14.50;102939;;;;576264;241;24045;-78
2022/03/21 10:57:07;;;;;;;61.67;18.47;;;14.70;42.20;13.70;102936;;;;579648;241;24001;-79
2022/03/21 10:59:35;;;;;;;31.93;13.40;;;14.50;42.00;13.20;102944;;;;578841;242;24047;-75
2022/03/21 11:02:09;;;;;;;28.03;11.90;;;14.10;43.10;12.60;102933;;;;574988;246;24039;-76
2022/03/21 11:04:38;;;;;;;24.63;11.03;;;13.00;43.90;12.10;102932;;;;576036;246;24113;-76
2022/03/21 11:07:11;;;;;;;25.60;11.73;;;12.60;45.20;11.80;102924;;;;578272;245;24076;-78
2022/03/21 11:09:35;;;;;;;17.67;11.83;;;12.30;45.90;11.50;102914;;;;575666;244;24092;-76
2022/03/21 11:12:07;;;;;;;22.37;11.87;;;12.00;46.20;11.30;102910;;;;578250;245;24150;-77
2022/03/21 11:14:34;;;;;;;20.07;11.53;;;12.00;46.20;11.30;102905;;;;578204;245;24128;-77
2022/03/21 11:17:01;;;;;;;22.40;10.60;;;11.90;46.60;11.30;102914;;;;577861;243;24056;-77
2022/03/21 11:19:29;;;;;;;17.40;9.83;;;11.90;46.40;11.20;102913;;;;586424;244;24075;-77